createdAt,value
2022-08-17T00:01:30.109Z,3.45
2022-08-17T00:04:09.270Z,3.50
2022-08-17T00:06:37.248Z,3.47
2022-08-17T00:09:05.550Z,3.90
2022-08-17T00:11:34.434Z,4.07
2022-08-17T00:14:07.400Z,4.20
2022-08-17T00:16:56.572Z,4.32
2022-08-17T00:19:25.273Z,4.00
2022-08-17T00:22:32.032Z,3.88
2022-08-17T00:24:42.797Z,3.90
2022-08-17T00:27:09.208Z,4.10
2022-08-17T00:29:35.562Z,3.80
2022-08-17T00:33:13.692Z,3.70
2022-08-17T00:34:49.848Z,4.38
2022-08-17T00:37:16.427Z,4.32
2022-08-17T00:39:42.903Z,4.10
2022-08-17T00:42:17.816Z,3.95
2022-08-17T00:44:44.775Z,4.20
2022-08-17T00:47:11.149Z,4.32
2022-08-17T00:49:37.559Z,4.40
2022-08-17T00:52:15.250Z,4.38
2022-08-17T00:54:45.142Z,4.40
2022-08-17T00:57:17.484Z,4.32
2022-08-17T00:59:56.015Z,4.15
2022-08-17T01:02:34.230Z,4.55
2022-08-17T01:05:07.759Z,4.50
2022-08-17T01:07:34.537Z,4.50
2022-08-17T01:10:57.142Z,4.40
2022-08-17T01:12:56.743Z,4.32
2022-08-17T01:15:23.553Z,4.28
2022-08-17T01:17:50.236Z,5.00
2022-08-17T01:20:16.873Z,5.50
2022-08-17T01:22:43.451Z,5.07
2022-08-17T01:25:12.735Z,4.68
2022-08-17T01:27:41.263Z,5.18
2022-08-17T01:30:56.923Z,4.80
2022-08-17T01:32:57.215Z,5.30
2022-08-17T01:35:24.125Z,5.00
2022-08-17T01:37:50.601Z,4.93
2022-08-17T01:40:31.145Z,5.20
2022-08-17T01:43:03.374Z,4.70
2022-08-17T01:45:33.736Z,5.32
2022-08-17T01:48:00.909Z,5.38
2022-08-17T01:50:30.764Z,5.03
2022-08-17T01:53:04.403Z,5.18
2022-08-17T01:55:36.864Z,5.50
2022-08-17T01:58:03.550Z,5.65
2022-08-17T02:00:59.392Z,5.90
2022-08-17T02:03:17.168Z,4.95
2022-08-17T02:05:44.375Z,5.20
2022-08-17T02:08:20.182Z,5.30
2022-08-17T02:10:48.509Z,5.50
2022-08-17T02:13:15.222Z,5.65
2022-08-17T02:15:42.232Z,5.07
2022-08-17T02:18:10.232Z,5.28
2022-08-17T02:20:42.631Z,5.45
2022-08-17T02:23:11.771Z,5.18
2022-08-17T02:25:39.570Z,5.10
2022-08-17T02:28:06.041Z,4.95
2022-08-17T02:30:59.802Z,5.57
2022-08-17T02:33:19.987Z,5.65
2022-08-17T02:35:46.760Z,5.63
2022-08-17T02:38:13.192Z,5.55
2022-08-17T02:40:40.557Z,5.22
2022-08-17T02:43:08.813Z,5.43
2022-08-17T02:45:35.746Z,5.35
2022-08-17T02:48:03.169Z,6.40
2022-08-17T02:50:29.958Z,5.20
2022-08-17T02:53:02.109Z,5.97
2022-08-17T02:55:40.820Z,5.38
2022-08-17T02:58:10.457Z,5.57
2022-08-17T03:00:41.146Z,5.82
2022-08-17T03:03:08.634Z,5.28
2022-08-17T03:05:36.967Z,5.93
2022-08-17T03:08:06.095Z,5.88
2022-08-17T03:10:32.876Z,5.55
2022-08-17T03:12:59.694Z,5.15
2022-08-17T03:15:29.256Z,5.47
2022-08-17T03:17:56.692Z,5.38
2022-08-17T03:20:25.354Z,5.90
2022-08-17T03:22:55.010Z,5.95
2022-08-17T03:25:31.601Z,5.38
2022-08-17T03:28:00.882Z,5.53
2022-08-17T03:30:28.794Z,5.53
2022-08-17T03:32:57.811Z,5.35
2022-08-17T03:35:27.051Z,5.22
2022-08-17T03:38:00.825Z,5.82
2022-08-17T03:40:55.592Z,5.95
2022-08-17T03:43:15.980Z,5.70
2022-08-17T03:46:01.587Z,5.13
2022-08-17T03:48:46.339Z,5.38
2022-08-17T03:51:43.456Z,5.00
2022-08-17T03:54:29.605Z,5.18
2022-08-17T03:57:02.731Z,4.97
2022-08-17T03:59:29.328Z,5.30
2022-08-17T04:01:59.017Z,5.18
2022-08-17T04:04:27.568Z,5.60
2022-08-17T04:06:54.190Z,5.30
2022-08-17T04:09:20.695Z,4.95
2022-08-17T04:11:47.657Z,5.50
2022-08-17T04:14:14.217Z,5.05
2022-08-17T04:16:40.971Z,5.88
2022-08-17T04:19:07.479Z,4.72
2022-08-17T04:21:34.806Z,4.95
2022-08-17T04:24:02.192Z,4.85
2022-08-17T04:26:53.175Z,4.90
2022-08-17T04:29:16.973Z,4.85
2022-08-17T04:31:44.338Z,4.38
2022-08-17T04:34:11.691Z,4.78
2022-08-17T04:36:38.127Z,4.68
2022-08-17T04:39:05.225Z,4.93
2022-08-17T04:41:50.026Z,4.47
2022-08-17T04:44:37.050Z,4.65
2022-08-17T04:47:03.074Z,5.43
2022-08-17T04:49:29.515Z,5.00
2022-08-17T04:51:59.068Z,5.03
2022-08-17T04:54:29.073Z,4.85
2022-08-17T04:56:55.507Z,5.00
2022-08-17T04:59:22.364Z,5.00
2022-08-17T05:01:51.147Z,4.60
2022-08-17T05:04:35.171Z,4.55
2022-08-17T05:07:03.147Z,4.22
2022-08-17T05:09:29.701Z,4.60
2022-08-17T05:12:00.715Z,5.00
2022-08-17T05:14:32.355Z,4.53
2022-08-17T05:17:00.996Z,5.30
2022-08-17T05:19:28.484Z,5.38
2022-08-17T05:21:54.922Z,4.78
2022-08-17T05:24:39.043Z,5.03
2022-08-17T05:27:07.742Z,5.00
2022-08-17T05:29:35.484Z,5.15
2022-08-17T05:32:38.839Z,4.45
2022-08-17T05:35:00.446Z,4.72
2022-08-17T05:37:27.168Z,4.95
2022-08-17T05:39:54.190Z,5.32
2022-08-17T05:42:20.721Z,4.75
2022-08-17T05:44:47.120Z,4.97
2022-08-17T05:47:13.642Z,5.40
2022-08-17T05:49:40.122Z,4.65
2022-08-17T05:52:19.845Z,4.75
2022-08-17T05:55:35.449Z,4.47
2022-08-17T05:58:27.813Z,5.15
2022-08-17T06:01:16.434Z,5.30
2022-08-17T06:04:00.530Z,4.55
2022-08-17T06:06:45.501Z,6.03
2022-08-17T06:09:49.169Z,4.60
2022-08-17T06:12:37.137Z,3.78
2022-08-17T06:15:03.485Z,4.00
2022-08-17T06:17:31.053Z,3.80
2022-08-17T06:20:07.914Z,3.75
2022-08-17T06:22:38.183Z,3.85
2022-08-17T06:25:31.464Z,4.30
2022-08-17T06:28:04.381Z,3.92
2022-08-17T06:30:59.902Z,3.55
2022-08-17T06:33:34.232Z,3.50
2022-08-17T06:36:25.140Z,3.70
2022-08-17T06:39:02.958Z,3.08
2022-08-17T06:41:42.944Z,3.72
2022-08-17T06:44:49.917Z,3.00
2022-08-17T06:47:11.134Z,3.45
2022-08-17T06:50:02.762Z,3.60
2022-08-17T06:52:45.946Z,3.28
2022-08-17T06:55:24.580Z,3.25
2022-08-17T06:57:57.456Z,3.30
2022-08-17T07:00:29.577Z,4.00
2022-08-17T07:03:08.369Z,4.25
2022-08-17T07:05:44.202Z,4.22
2022-08-17T07:08:27.749Z,4.78
2022-08-17T07:11:00.472Z,4.60
2022-08-17T07:13:33.380Z,5.07
2022-08-17T07:16:11.399Z,5.03
2022-08-17T07:18:37.932Z,5.18
2022-08-17T07:21:17.552Z,5.63
2022-08-17T07:23:54.766Z,5.82
2022-08-17T07:26:24.283Z,5.72
2022-08-17T07:28:51.491Z,5.47
2022-08-17T07:31:17.914Z,5.85
2022-08-17T07:34:00.985Z,6.07
2022-08-17T07:36:33.604Z,6.00
2022-08-17T07:39:03.267Z,7.05
2022-08-17T07:41:57.632Z,5.90
2022-08-17T07:44:26.437Z,6.60
2022-08-17T07:47:12.853Z,6.43
2022-08-17T07:49:48.712Z,6.25
2022-08-17T07:52:51.931Z,6.15
2022-08-17T07:55:29.471Z,6.22
2022-08-17T07:57:58.014Z,6.65
2022-08-17T08:00:32.031Z,6.47
2022-08-17T08:03:13.420Z,6.70
2022-08-17T08:05:52.858Z,6.30
2022-08-17T08:08:25.554Z,6.90
2022-08-17T08:11:10.800Z,6.65
2022-08-17T08:13:42.806Z,6.68
2022-08-17T08:16:29.511Z,7.25
2022-08-17T08:19:01.442Z,6.70
2022-08-17T08:21:51.283Z,7.03
2022-08-17T08:24:36.636Z,6.53
2022-08-17T08:27:20.465Z,7.22
2022-08-17T08:30:10.178Z,8.38
2022-08-17T08:32:58.618Z,6.80
2022-08-17T08:35:33.619Z,6.68
2022-08-17T08:38:08.306Z,7.75
2022-08-17T08:40:49.746Z,7.85
2022-08-17T08:43:36.176Z,7.82
2022-08-17T08:46:21.874Z,7.95
2022-08-17T08:49:19.371Z,7.30
2022-08-17T08:51:57.853Z,8.00
2022-08-17T08:54:53.897Z,7.88
2022-08-17T08:57:34.089Z,8.88
2022-08-17T09:00:03.934Z,8.70
2022-08-17T09:03:08.379Z,7.97
2022-08-17T09:05:34.786Z,7.32
2022-08-17T09:08:29.586Z,8.18
2022-08-17T09:11:02.688Z,7.35
2022-08-17T09:13:55.652Z,8.13
2022-08-17T09:16:35.995Z,8.27
2022-08-17T09:19:57.003Z,9.10
2022-08-17T09:22:37.462Z,9.07
2022-08-17T09:25:12.551Z,8.48
2022-08-17T09:27:57.281Z,8.20
2022-08-17T09:30:36.215Z,8.82
2022-08-17T09:33:07.665Z,8.70
2022-08-17T09:36:02.304Z,8.55
2022-08-17T09:38:59.877Z,7.45
2022-08-17T09:41:49.560Z,8.65
2022-08-17T09:44:44.196Z,8.15
2022-08-17T09:48:01.897Z,9.20
2022-08-17T09:51:04.358Z,9.48
2022-08-17T09:53:24.119Z,8.90
2022-08-17T09:56:48.277Z,9.57
2022-08-17T09:59:38.310Z,8.93
2022-08-17T10:02:31.762Z,9.32
2022-08-17T10:05:13.539Z,10.25
2022-08-17T10:07:56.577Z,10.15
2022-08-17T10:10:36.807Z,9.80
2022-08-17T10:13:15.721Z,10.10
2022-08-17T10:16:01.220Z,9.45
2022-08-17T10:18:37.599Z,9.60
2022-08-17T10:21:34.407Z,9.60
2022-08-17T10:25:23.864Z,10.63
2022-08-17T10:27:57.628Z,10.68
2022-08-17T10:30:28.364Z,10.75
2022-08-17T10:33:01.672Z,10.05
2022-08-17T10:35:59.251Z,10.75
2022-08-17T10:38:36.388Z,9.70
2022-08-17T10:41:27.094Z,10.65
2022-08-17T10:44:40.456Z,9.75
2022-08-17T10:47:15.773Z,9.95
2022-08-17T10:52:28.005Z,10.95
2022-08-17T10:54:57.999Z,11.10
2022-08-17T10:57:31.776Z,11.40
2022-08-17T11:00:10.189Z,11.63
2022-08-17T11:02:51.145Z,11.52
2022-08-17T11:05:40.155Z,11.70
2022-08-17T11:08:30.346Z,12.77
2022-08-17T11:11:08.713Z,12.38
2022-08-17T11:14:06.203Z,12.70
2022-08-17T11:16:38.927Z,12.73
2022-08-17T11:19:49.069Z,12.77
2022-08-17T11:22:33.362Z,11.95
2022-08-17T11:25:31.714Z,13.07
2022-08-17T11:28:08.959Z,12.80
2022-08-17T11:30:57.980Z,14.05
2022-08-17T11:33:30.393Z,13.50
2022-08-17T11:36:20.138Z,11.98
2022-08-17T11:39:02.182Z,13.10
2022-08-17T11:41:49.564Z,12.85
2022-08-17T11:44:31.225Z,13.10
2022-08-17T11:47:32.465Z,13.80
2022-08-17T11:50:27.982Z,14.05
2022-08-17T11:52:55.024Z,14.48
2022-08-17T11:55:38.225Z,13.25
2022-08-17T11:58:29.048Z,13.88
2022-08-17T12:01:00.837Z,12.82
2022-08-17T12:03:33.318Z,12.43
2022-08-17T12:06:29.632Z,13.95
2022-08-17T12:09:34.467Z,13.75
2022-08-17T12:12:14.255Z,14.63
2022-08-17T12:15:10.020Z,16.02
2022-08-17T12:17:40.716Z,14.48
2022-08-17T12:20:37.133Z,14.18
2022-08-17T12:25:45.688Z,15.57
2022-08-17T12:28:23.865Z,15.30
2022-08-17T12:30:51.988Z,15.63
2022-08-17T12:33:25.594Z,16.80
2022-08-17T12:36:03.114Z,16.00
2022-08-17T12:38:35.193Z,15.48
2022-08-17T12:41:24.664Z,15.85
2022-08-17T12:44:13.151Z,15.95
2022-08-17T12:46:48.916Z,17.25
2022-08-17T12:49:24.203Z,16.65
2022-08-17T12:51:57.041Z,17.88
2022-08-17T12:54:31.522Z,18.55
2022-08-17T12:57:04.658Z,17.35
2022-08-17T12:59:33.073Z,18.02
2022-08-17T13:02:00.838Z,17.88
2022-08-17T13:04:29.737Z,18.70
2022-08-17T13:06:59.557Z,20.10
2022-08-17T13:09:36.051Z,19.63
2022-08-17T13:12:08.482Z,17.02
2022-08-17T13:14:35.339Z,18.55
2022-08-17T13:17:07.351Z,18.45
2022-08-17T13:22:11.963Z,18.27
2022-08-17T13:24:38.921Z,17.17
2022-08-17T13:27:09.939Z,18.30
2022-08-17T13:29:51.623Z,17.90
2022-08-17T13:32:43.580Z,17.90
2022-08-17T13:35:39.398Z,18.08
2022-08-17T13:38:10.085Z,19.25
2022-08-17T13:40:53.001Z,21.52
2022-08-17T13:43:44.360Z,19.73
2022-08-17T13:46:19.706Z,21.23
2022-08-17T13:48:56.089Z,20.20
2022-08-17T13:51:26.721Z,17.50
2022-08-17T13:53:56.662Z,20.90
2022-08-17T13:56:40.503Z,24.92
2022-08-17T13:59:54.564Z,23.53
2022-08-17T14:02:22.680Z,26.15
2022-08-17T14:04:54.274Z,24.80
2022-08-17T14:07:27.110Z,27.13
2022-08-17T14:09:58.390Z,24.08
2022-08-17T14:12:27.284Z,25.27
2022-08-17T14:14:58.804Z,25.98
2022-08-17T14:17:28.723Z,26.10
2022-08-17T14:19:55.654Z,25.77
2022-08-17T14:22:30.359Z,24.73
2022-08-17T14:24:59.035Z,22.60
2022-08-17T14:27:27.982Z,25.80
2022-08-17T14:29:55.641Z,26.10
2022-08-17T14:32:26.575Z,25.50
2022-08-17T14:34:56.607Z,25.58
2022-08-17T14:37:27.859Z,28.10
2022-08-17T14:39:55.951Z,22.23
2022-08-17T14:42:24.679Z,23.38
2022-08-17T14:44:54.977Z,25.30
2022-08-17T14:47:21.636Z,27.45
2022-08-17T14:49:48.513Z,27.88
2022-08-17T14:52:21.575Z,24.52
2022-08-17T14:54:51.234Z,24.63
2022-08-17T14:57:33.984Z,24.15
2022-08-17T15:00:01.995Z,27.33
2022-08-17T15:02:30.823Z,24.30
2022-08-17T15:05:03.944Z,22.33
2022-08-17T15:07:31.251Z,25.08
2022-08-17T15:10:00.514Z,24.50
2022-08-17T15:12:32.283Z,23.15
2022-08-17T15:15:00.623Z,25.25
2022-08-17T15:17:27.129Z,22.67
2022-08-17T15:20:17.901Z,22.35
2022-08-17T15:22:46.784Z,20.80
2022-08-17T15:25:14.439Z,20.17
2022-08-17T15:27:41.269Z,19.88
2022-08-17T15:30:09.832Z,20.70
2022-08-17T15:32:38.451Z,18.95
2022-08-17T15:35:07.647Z,19.58
2022-08-17T15:37:34.285Z,20.90
2022-08-17T15:40:01.125Z,19.35
2022-08-17T15:42:29.251Z,21.27
2022-08-17T15:44:55.956Z,22.25
2022-08-17T15:47:22.516Z,24.42
2022-08-17T15:49:48.981Z,20.83
2022-08-17T15:52:29.810Z,19.98
2022-08-17T15:54:59.352Z,21.05
2022-08-17T15:57:27.065Z,21.60
2022-08-17T15:59:58.900Z,22.95
2022-08-17T16:03:14.084Z,23.38
2022-08-17T16:05:24.145Z,23.23
2022-08-17T16:07:51.860Z,22.35
2022-08-17T16:10:19.365Z,23.00
2022-08-17T16:12:47.952Z,21.60
2022-08-17T16:15:15.260Z,23.10
2022-08-17T16:17:42.272Z,25.73
2022-08-17T16:20:19.918Z,24.73
2022-08-17T16:22:49.735Z,24.40
2022-08-17T16:25:19.849Z,25.85
2022-08-17T16:27:48.286Z,23.85
2022-08-17T16:30:17.636Z,25.20
2022-08-17T16:32:44.647Z,25.30
2022-08-17T16:35:12.790Z,21.60
2022-08-17T16:37:40.262Z,19.73
2022-08-17T16:40:11.781Z,19.75
2022-08-17T16:42:39.637Z,21.35
2022-08-17T16:45:13.001Z,19.65
2022-08-17T16:47:40.075Z,19.90
2022-08-17T16:50:08.263Z,19.15
2022-08-17T16:52:35.252Z,20.33
2022-08-17T16:55:03.740Z,16.95
2022-08-17T16:57:30.307Z,17.30
2022-08-17T16:59:56.978Z,14.90
2022-08-17T17:02:38.074Z,14.10
2022-08-17T17:05:25.189Z,13.68
2022-08-17T17:08:16.214Z,11.98
2022-08-17T17:10:47.564Z,11.05
2022-08-17T17:13:32.180Z,10.77
2022-08-17T17:16:00.622Z,10.73
2022-08-17T17:19:03.150Z,9.88
2022-08-17T17:21:47.341Z,9.82
2022-08-17T17:24:21.269Z,9.77
2022-08-17T17:26:55.368Z,10.18
2022-08-17T17:29:24.857Z,9.65
2022-08-17T17:32:13.686Z,9.20
2022-08-17T17:34:50.869Z,9.27
2022-08-17T17:37:27.283Z,9.43
2022-08-17T17:39:57.634Z,9.05
2022-08-17T17:42:31.456Z,7.90
2022-08-17T17:45:04.670Z,8.93
2022-08-17T17:47:31.842Z,8.13
2022-08-17T17:50:01.324Z,7.65
2022-08-17T17:52:36.684Z,8.05
2022-08-17T17:55:18.224Z,8.20
2022-08-17T17:57:57.783Z,8.35
2022-08-17T18:00:39.141Z,8.07
2022-08-17T18:03:22.303Z,7.95
2022-08-17T18:06:24.192Z,8.05
2022-08-17T18:09:02.603Z,8.20
2022-08-17T18:11:59.008Z,7.78
2022-08-17T18:14:45.578Z,7.88
2022-08-17T18:17:12.548Z,7.93
2022-08-17T18:19:39.793Z,8.77
2022-08-17T18:22:14.176Z,7.95
2022-08-17T18:24:44.194Z,7.95
2022-08-17T18:27:28.637Z,7.68
2022-08-17T18:29:57.349Z,8.52
2022-08-17T18:32:46.290Z,8.18
2022-08-17T18:35:14.174Z,7.70
2022-08-17T18:37:52.131Z,7.93
2022-08-17T18:40:21.501Z,8.00
2022-08-17T18:43:06.510Z,8.25
2022-08-17T18:45:44.559Z,8.23
2022-08-17T18:48:36.517Z,8.65
2022-08-17T18:51:41.461Z,8.40
2022-08-17T18:54:24.753Z,8.52
2022-08-17T18:56:53.445Z,8.50
2022-08-17T18:59:26.970Z,7.95
2022-08-17T19:01:58.457Z,8.50
2022-08-17T19:04:55.678Z,8.82
2022-08-17T19:07:24.945Z,8.73
2022-08-17T19:10:11.248Z,8.93
2022-08-17T19:12:46.090Z,9.50
2022-08-17T19:15:14.762Z,8.98
2022-08-17T19:17:51.319Z,10.23
2022-08-17T19:20:34.557Z,9.57
2022-08-17T19:23:16.933Z,9.65
2022-08-17T19:25:48.445Z,9.80
2022-08-17T19:28:38.452Z,9.63
2022-08-17T19:31:16.307Z,9.90
2022-08-17T19:33:43.087Z,10.27
2022-08-17T19:36:21.440Z,9.40
2022-08-17T19:38:59.270Z,10.05
2022-08-17T19:41:46.518Z,9.60
2022-08-17T19:44:40.441Z,10.90
2022-08-17T19:47:36.198Z,11.15
2022-08-17T19:50:14.007Z,10.75
2022-08-17T19:52:49.231Z,10.80
2022-08-17T19:55:20.731Z,11.63
2022-08-17T19:57:56.061Z,11.18
2022-08-17T20:00:22.691Z,11.27
2022-08-17T20:03:06.361Z,12.15
2022-08-17T20:06:01.372Z,11.38
2022-08-17T20:08:27.145Z,11.15
2022-08-17T20:10:58.468Z,12.48
2022-08-17T20:13:33.543Z,11.50
2022-08-17T20:16:01.867Z,11.88
2022-08-17T20:18:34.247Z,12.23
2022-08-17T20:21:20.171Z,11.95
2022-08-17T20:23:57.320Z,11.82
2022-08-17T20:26:30.239Z,12.60
2022-08-17T20:29:37.206Z,12.85
2022-08-17T20:32:14.916Z,13.38
2022-08-17T20:34:46.368Z,12.77
2022-08-17T20:37:12.729Z,13.25
2022-08-17T20:39:43.038Z,13.15
2022-08-17T20:42:15.531Z,12.95
2022-08-17T20:44:43.000Z,13.02
2022-08-17T20:47:12.155Z,12.93
2022-08-17T20:49:50.237Z,13.95
2022-08-17T20:52:50.671Z,14.23
2022-08-17T20:55:35.525Z,13.88
2022-08-17T20:58:24.287Z,14.18
2022-08-17T21:00:57.070Z,13.73
2022-08-17T21:03:23.572Z,14.15
2022-08-17T21:06:11.098Z,13.63
2022-08-17T21:09:16.185Z,14.95
2022-08-17T21:12:03.775Z,13.73
2022-08-17T21:15:01.749Z,15.13
2022-08-17T21:17:48.277Z,14.57
2022-08-17T21:20:27.547Z,14.73
2022-08-17T21:23:21.658Z,15.95
2022-08-17T21:26:04.982Z,15.82
2022-08-17T21:29:00.578Z,15.27
2022-08-17T21:31:35.602Z,16.67
2022-08-17T21:34:20.915Z,15.23
2022-08-17T21:39:19.373Z,14.98
2022-08-17T21:41:53.589Z,15.15
2022-08-17T21:44:30.564Z,15.95
2022-08-17T21:47:13.856Z,15.27
2022-08-17T21:49:40.466Z,15.20
2022-08-17T21:52:07.585Z,16.70
2022-08-17T21:54:38.772Z,15.68
2022-08-17T21:57:15.319Z,16.15
2022-08-17T21:59:43.586Z,16.48
2022-08-17T22:02:24.071Z,16.65
2022-08-17T22:05:02.819Z,17.15
2022-08-17T22:07:48.517Z,16.25
2022-08-17T22:10:41.241Z,16.30
2022-08-17T22:13:17.486Z,17.10
2022-08-17T22:15:47.903Z,16.90
2022-08-17T22:18:19.907Z,15.88
2022-08-17T22:20:51.765Z,16.65
2022-08-17T22:23:51.297Z,16.85
2022-08-17T22:26:19.799Z,16.83
2022-08-17T22:28:49.715Z,16.70
2022-08-17T22:31:24.438Z,17.13
2022-08-17T22:36:32.505Z,16.98
2022-08-17T22:39:23.067Z,16.55
2022-08-17T22:41:59.401Z,18.85
2022-08-17T22:44:29.442Z,18.90
2022-08-17T22:47:13.980Z,19.92
2022-08-17T22:49:54.222Z,20.17
2022-08-17T22:52:34.999Z,20.08
2022-08-17T22:55:31.109Z,20.52
2022-08-17T22:58:16.503Z,18.95
2022-08-17T23:00:45.880Z,21.40
2022-08-17T23:03:22.228Z,22.52
2022-08-17T23:06:10.716Z,24.85
2022-08-17T23:08:54.636Z,24.00
2022-08-17T23:11:36.892Z,22.95
2022-08-17T23:14:15.571Z,22.77
2022-08-17T23:16:42.701Z,22.52
2022-08-17T23:19:10.569Z,23.40
2022-08-17T23:21:37.389Z,24.13
2022-08-17T23:24:08.827Z,22.17
2022-08-17T23:26:37.988Z,23.88
2022-08-17T23:29:06.450Z,25.23
2022-08-17T23:31:34.705Z,25.17
2022-08-17T23:34:03.012Z,25.02
2022-08-17T23:36:31.499Z,25.05
2022-08-17T23:38:57.957Z,26.15
2022-08-17T23:41:28.097Z,25.48
2022-08-17T23:43:55.320Z,25.98
2022-08-17T23:46:25.052Z,26.15
2022-08-17T23:48:54.173Z,25.58
2022-08-17T23:51:25.118Z,27.35
2022-08-17T23:53:55.777Z,27.38
2022-08-17T23:56:25.734Z,27.38
2022-08-17T23:58:54.846Z,29.50
